Ryurik — UBUA — position and weather

sailwx.info

Track history (hours):
 
Tides and Currents Weather Stations Pressure Air Temp Water Temp Dewpoint Dewpoint Depression Visibility Wind Speed Wind Dir Waves Ship Positions

Ryurik

Last reported at 2018-Feb-24 15:30 UTC. Time now 2018-Feb-24 15:53 UTC.
Position N 59°42' E 028°26'.

; draft 5.9 m.

Type: Tug. MMSI: 273435190.

Date/timePositionNaut miles runAvg speedWind from/ knotsBaromVisibWave heightAir tempDewpointWater temp
2018-Feb-24 15:30N 59°42' E 028°26'1 2.5
2018-Feb-24 15:00N 59°41' E 028°25'1 2.5
2018-Feb-24 14:30N 59°41' E 028°23'0 0.0
2018-Feb-24 13:59N 59°41' E 028°23'0 0.2
2018-Feb-24 13:30N 59°41' E 028°23'1 2.2
2018-Feb-24 13:00N 59°41' E 028°24'4 7.1
2018-Feb-24 12:30N 59°45' E 028°24'1 2.8
2018-Feb-24 12:00N 59°44' E 028°23'2 4.4
2018-Feb-24 11:30N 59°42' E 028°21'0 0.0
2018-Feb-24 11:00N 59°42' E 028°21'0 0.0
2018-Feb-24 10:30N 59°42' E 028°21'0 0.0
2018-Feb-24 10:00N 59°42' E 028°21'0 0.0
2018-Feb-24 09:30N 59°42' E 028°21'0 0.0
2018-Feb-24 09:00N 59°42' E 028°21'0 0.0
2018-Feb-24 08:30N 59°42' E 028°21'0 0.0
2018-Feb-24 08:00N 59°42' E 028°21'0 0.0
2018-Feb-24 07:30N 59°42' E 028°21'0 0.0
2018-Feb-24 07:00N 59°42' E 028°21'0 0.0
2018-Feb-24 06:30N 59°42' E 028°21'0 0.0
2018-Feb-24 06:00N 59°42' E 028°21'0 0.0
2018-Feb-24 05:30N 59°42' E 028°21'0 0.0
2018-Feb-24 05:00N 59°42' E 028°21'0 0.0
2018-Feb-24 04:30N 59°42' E 028°21'0 0.0
2018-Feb-24 04:00N 59°42' E 028°21'0 0.0
2018-Feb-24 03:30N 59°42' E 028°21'0 0.0
2018-Feb-24 03:01N 59°42' E 028°21'0 0.0
2018-Feb-24 02:30N 59°42' E 028°21'0 0.0
2018-Feb-24 02:00N 59°42' E 028°21'0 0.0
2018-Feb-24 01:30N 59°42' E 028°21'0 0.0
2018-Feb-24 01:00N 59°42' E 028°21'0 0.0
2018-Feb-24 00:30N 59°42' E 028°21'0 0.0
2018-Feb-24 00:00N 59°42' E 028°21'0 0.0
2018-Feb-23 23:30N 59°42' E 028°21'0 0.0
2018-Feb-23 23:00N 59°42' E 028°21'0 0.0
2018-Feb-23 22:30N 59°42' E 028°21'0 0.0
2018-Feb-23 22:00N 59°42' E 028°21'0 0.0
2018-Feb-23 21:30N 59°42' E 028°21'0 0.0
2018-Feb-23 21:00N 59°42' E 028°21'0 0.0
2018-Feb-23 20:30N 59°42' E 028°21'0 0.0
2018-Feb-23 20:00N 59°42' E 028°21'0 0.0
2018-Feb-23 19:30N 59°42' E 028°21'0 0.0
2018-Feb-23 19:00N 59°42' E 028°21'0 0.0
2018-Feb-23 18:30N 59°42' E 028°21'0 0.0
2018-Feb-23 18:00N 59°42' E 028°21'0 0.0
2018-Feb-23 17:30N 59°42' E 028°21'0 0.0
2018-Feb-23 17:00N 59°42' E 028°21'4 7.4
2018-Feb-23 16:30N 59°45' E 028°24'2 4.1
2018-Feb-23 16:00N 59°43' E 028°25'1 1.6
2018-Feb-23 15:30N 59°42' E 028°26'0 0.0
2018-Feb-23 15:00N 59°42' E 028°26'1 2.1
2018-Feb-23 14:30N 59°43' E 028°24'2 3.2
2018-Feb-23 14:00N 59°42' E 028°21'0 0.0
2018-Feb-23 13:30N 59°42' E 028°21'0 0.0
2018-Feb-23 13:00N 59°42' E 028°21'0 0.0
2018-Feb-23 12:30N 59°42' E 028°21'0 0.0
2018-Feb-23 12:00N 59°42' E 028°21'0 0.0
2018-Feb-23 11:30N 59°42' E 028°21'0 0.0
2018-Feb-23 11:00N 59°42' E 028°21'0 0.0
2018-Feb-23 10:30N 59°42' E 028°21'0 0.0
2018-Feb-23 10:00N 59°42' E 028°21'0 0.0
2018-Feb-23 09:30N 59°42' E 028°21'0 0.0
2018-Feb-23 09:00N 59°42' E 028°21'0 0.0
2018-Feb-23 08:30N 59°42' E 028°21'0 0.0
2018-Feb-23 08:00N 59°42' E 028°21'0 0.0
2018-Feb-23 07:30N 59°42' E 028°21'0 0.0
2018-Feb-23 07:00N 59°42' E 028°21'0 0.0
2018-Feb-23 06:30N 59°42' E 028°21'0 0.0
2018-Feb-23 06:00N 59°42' E 028°21'0 0.0
2018-Feb-23 05:30N 59°42' E 028°21'0 0.0
2018-Feb-23 05:00N 59°42' E 028°21'0 0.0
2018-Feb-23 04:30N 59°42' E 028°21'0 0.0
2018-Feb-23 04:00N 59°42' E 028°21'0 0.0
2018-Feb-23 03:30N 59°42' E 028°21'0 0.0
2018-Feb-23 03:00N 59°42' E 028°21'0 0.0
2018-Feb-23 02:30N 59°42' E 028°21'0 0.0
2018-Feb-23 02:00N 59°42' E 028°21'1 2.9
2018-Feb-23 01:30N 59°42' E 028°24'1 2.0
2018-Feb-23 01:00N 59°43' E 028°26'0 0.2
2018-Feb-23 00:30N 59°42' E 028°26'0 0.9
2018-Feb-23 00:00N 59°42' E 028°25'1 1.6
2018-Feb-22 23:30N 59°42' E 028°24'3 5.8
2018-Feb-22 23:00N 59°45' E 028°24'2 4.6
2018-Feb-22 22:30N 59°43' E 028°25'3 5.3
2018-Feb-22 22:00N 59°41' E 028°23'0 0.2
2018-Feb-22 21:30N 59°41' E 028°23'0 0.0
2018-Feb-22 21:00N 59°41' E 028°23'1 1.6
2018-Feb-22 20:30N 59°41' E 028°24'0 0.0
2018-Feb-22 20:00N 59°41' E 028°24'0 0.0
2018-Feb-22 19:30N 59°41' E 028°24'0 0.0
2018-Feb-22 19:00N 59°41' E 028°24'0 0.0
2018-Feb-22 18:30N 59°41' E 028°24'0 0.0
2018-Feb-22 18:00N 59°41' E 028°24'0 0.0
2018-Feb-22 17:30N 59°41' E 028°24'0 0.0
2018-Feb-22 17:00N 59°41' E 028°24'0 0.0
2018-Feb-22 16:30N 59°41' E 028°24'0 0.0
2018-Feb-22 16:00N 59°41' E 028°24'0 0.0
2018-Feb-22 15:30N 59°41' E 028°24'0 0.0
2018-Feb-22 15:00N 59°41' E 028°24'0 0.9
2018-Feb-22 14:30N 59°40' E 028°24'0 0.0
2018-Feb-22 14:00N 59°40' E 028°24'0 0.1
2018-Feb-22 13:29N 59°40' E 028°24'0 0.0
2018-Feb-22 13:00N 59°40' E 028°24'0 0.0
2018-Feb-22 12:29N 59°40' E 028°24'0 0.0
2018-Feb-22 12:00N 59°40' E 028°24'0 0.0
2018-Feb-22 11:28N 59°40' E 028°24'0 0.1
2018-Feb-22 11:00N 59°40' E 028°24'0 0.0
2018-Feb-22 10:30N 59°40' E 028°24'2 3.6
2018-Feb-22 10:00N 59°42' E 028°25'0 0.5
2018-Feb-22 09:30N 59°42' E 028°26'0 0.9
2018-Feb-22 09:00N 59°42' E 028°25'1 1.8
2018-Feb-22 08:30N 59°42' E 028°24'3 5.7
2018-Feb-22 08:00N 59°45' E 028°24'3 7.0
2018-Feb-22 07:30N 59°42' E 028°22'0 0.7
2018-Feb-22 07:00N 59°42' E 028°22'0 0.0
2018-Feb-22 06:30N 59°42' E 028°22'0 0.0
2018-Feb-22 06:00N 59°42' E 028°22'0 0.0
2018-Feb-22 05:30N 59°42' E 028°22'0 0.0
2018-Feb-22 05:00N 59°42' E 028°22'0 0.0
2018-Feb-22 04:30N 59°42' E 028°22'0 0.0
2018-Feb-22 04:00N 59°42' E 028°22'0 0.0
2018-Feb-22 03:30N 59°42' E 028°22'0 0.0
2018-Feb-22 03:00N 59°42' E 028°22'0 0.0
2018-Feb-22 02:30N 59°42' E 028°22'0 0.0
2018-Feb-22 02:00N 59°42' E 028°22'0 0.0
2018-Feb-22 01:28N 59°42' E 028°22'0 0.0
2018-Feb-22 01:00N 59°42' E 028°22'0 0.0
2018-Feb-22 00:29N 59°42' E 028°22'0 0.0
2018-Feb-22 00:00N 59°42' E 028°22'0 0.0
2018-Feb-21 23:30N 59°42' E 028°22'0 0.0
2018-Feb-21 23:00N 59°42' E 028°22'0 0.0
2018-Feb-21 22:30N 59°42' E 028°22'0 0.0
2018-Feb-21 22:00N 59°42' E 028°22'0 0.0
2018-Feb-21 21:30N 59°42' E 028°22'0 0.0
2018-Feb-21 21:00N 59°42' E 028°22'0 0.0
2018-Feb-21 20:30N 59°42' E 028°22'0 0.0
2018-Feb-21 20:00N 59°42' E 028°22'0 0.0
2018-Feb-21 19:30N 59°42' E 028°22'0 0.0
2018-Feb-21 19:00N 59°42' E 028°22'0 0.0
2018-Feb-21 18:27N 59°42' E 028°22'0 0.0
2018-Feb-21 17:57N 59°42' E 028°22'0 0.0
2018-Feb-21 17:30N 59°42' E 028°22'0 0.0
2018-Feb-21 16:55N 59°42' E 028°22'0 0.0
2018-Feb-21 16:30N 59°42' E 028°22'0 0.0
2018-Feb-21 16:00N 59°42' E 028°22'0 0.0
2018-Feb-21 15:30N 59°42' E 028°22'0 0.0
2018-Feb-21 15:00N 59°42' E 028°22'0 0.0
2018-Feb-21 14:30N 59°42' E 028°22'0 0.0
2018-Feb-21 14:00N 59°42' E 028°22'0 0.0
2018-Feb-21 13:30N 59°42' E 028°22'0 0.0
2018-Feb-21 13:00N 59°42' E 028°22'0 0.0
2018-Feb-21 12:29N 59°42' E 028°22'0 0.0
2018-Feb-21 12:00N 59°42' E 028°22'0 0.0
2018-Feb-21 11:30N 59°42' E 028°22'0 0.0
2018-Feb-21 11:00N 59°42' E 028°22'0 0.0
2018-Feb-21 10:30N 59°42' E 028°22'0 0.0
2018-Feb-21 10:00N 59°42' E 028°22'0 0.0
2018-Feb-21 09:30N 59°42' E 028°22'0 0.0
2018-Feb-21 08:59N 59°42' E 028°22'0 0.0
2018-Feb-21 08:30N 59°42' E 028°22'0 0.0
2018-Feb-21 08:00N 59°42' E 028°22'0 0.0
2018-Feb-21 07:30N 59°42' E 028°22'0 0.0
2018-Feb-21 06:59N 59°42' E 028°22'0 0.0
2018-Feb-21 06:30N 59°42' E 028°22'0 0.0
2018-Feb-21 06:00N 59°42' E 028°22'0 0.0
2018-Feb-21 05:30N 59°42' E 028°22'0 0.0
2018-Feb-21 05:00N 59°42' E 028°22'0 0.0
2018-Feb-21 04:30N 59°42' E 028°22'0 0.0
2018-Feb-21 04:00N 59°42' E 028°22'0 0.0
2018-Feb-21 03:30N 59°42' E 028°22'0 0.0
2018-Feb-21 03:00N 59°42' E 028°22'0 0.0
2018-Feb-21 02:30N 59°42' E 028°22'0 0.0
2018-Feb-21 02:00N 59°42' E 028°22'0 0.0
2018-Feb-21 01:30N 59°42' E 028°22'0 0.0
2018-Feb-21 00:59N 59°42' E 028°22'0 0.0
2018-Feb-21 00:30N 59°42' E 028°22'0 0.0
2018-Feb-21 00:00N 59°42' E 028°22'0 0.0
2018-Feb-20 23:30N 59°42' E 028°22'0 0.0
2018-Feb-20 23:00N 59°42' E 028°22'0 0.0
2018-Feb-20 22:30N 59°42' E 028°22'0 0.0
2018-Feb-20 22:00N 59°42' E 028°22'0 0.0
2018-Feb-20 21:29N 59°42' E 028°22'0 0.0
2018-Feb-20 20:59N 59°42' E 028°22'0 0.0
2018-Feb-20 20:30N 59°42' E 028°22'0 0.0
2018-Feb-20 20:00N 59°42' E 028°22'0 0.0
2018-Feb-20 19:30N 59°42' E 028°22'0 0.0
2018-Feb-20 19:00N 59°42' E 028°22'0 0.0
2018-Feb-20 18:30N 59°42' E 028°22'0 0.0
2018-Feb-20 18:00N 59°42' E 028°22'0 0.0
2018-Feb-20 17:30N 59°42' E 028°22'0 0.0
2018-Feb-20 17:00N 59°42' E 028°22'0 0.0
2018-Feb-20 16:30N 59°42' E 028°22'0 0.0
2018-Feb-20 16:00N 59°42' E 028°22'0 0.0
2018-Feb-20 15:30N 59°42' E 028°22'0 0.0
2018-Feb-20 15:00N 59°42' E 028°22'0 0.0
2018-Feb-20 14:30N 59°42' E 028°22'0 0.0
2018-Feb-20 14:00N 59°42' E 028°22'0 0.0
2018-Feb-20 13:30N 59°42' E 028°22'0 0.0
2018-Feb-20 13:00N 59°42' E 028°22'0 0.0
2018-Feb-20 12:30N 59°42' E 028°22'0 0.0
2018-Feb-20 11:58N 59°42' E 028°22'0 0.0
2018-Feb-20 11:30N 59°42' E 028°22'0 0.0
2018-Feb-20 11:00N 59°42' E 028°22'0 0.0
2018-Feb-20 10:30N 59°42' E 028°22'0 0.0
2018-Feb-20 10:00N 59°42' E 028°22'0 0.0
2018-Feb-20 09:30N 59°42' E 028°22'0 0.0
2018-Feb-20 09:00N 59°42' E 028°22'0 0.0
2018-Feb-20 08:30N 59°42' E 028°22'0 0.0
2018-Feb-20 08:00N 59°42' E 028°22'0 0.0
2018-Feb-20 07:29N 59°42' E 028°22'0 0.0
2018-Feb-20 07:00N 59°42' E 028°22'0 0.0
2018-Feb-20 06:29N 59°42' E 028°22'0 0.0
2018-Feb-20 06:00N 59°42' E 028°22'0 0.0
2018-Feb-20 05:31N 59°42' E 028°22'0 0.0
2018-Feb-20 05:01N 59°42' E 028°22'0 0.0
2018-Feb-20 04:30N 59°42' E 028°22'1 2.8
2018-Feb-20 04:01N 59°43' E 028°24'2 3.9
2018-Feb-20 03:30N 59°41' E 028°23'0 0.0
2018-Feb-20 02:55N 59°41' E 028°23'0 0.1
2018-Feb-20 02:30N 59°41' E 028°23'0 0.8
2018-Feb-20 02:00N 59°41' E 028°24'2 4.1
2018-Feb-20 01:31N 59°43' E 028°24'3 5.7
2018-Feb-20 01:00N 59°45' E 028°25'0 0.5
2018-Feb-20 00:31N 59°46' E 028°24'0 0.0
2018-Feb-20 00:00N 59°46' E 028°24'3 6.1
2018-Feb-19 23:30N 59°43' E 028°22'1 2.0
2018-Feb-19 23:00N 59°42' E 028°22'0 0.0
2018-Feb-19 22:30N 59°42' E 028°22'0 0.0
2018-Feb-19 22:00N 59°42' E 028°22'0 0.0
2018-Feb-19 21:29N 59°42' E 028°22'0 0.0
2018-Feb-19 20:55N 59°42' E 028°22'0 0.0
2018-Feb-19 20:30N 59°42' E 028°22'0 0.0
2018-Feb-19 19:53N 59°42' E 028°22'0 0.0
2018-Feb-19 19:28N 59°42' E 028°22'0 0.0
2018-Feb-19 19:00N 59°42' E 028°22'0 0.0
2018-Feb-19 18:30N 59°42' E 028°22'0 0.0
2018-Feb-19 18:00N 59°42' E 028°22'0 0.0
2018-Feb-19 17:29N 59°42' E 028°22'0 0.0
2018-Feb-19 17:00N 59°42' E 028°22'0 0.0
2018-Feb-19 16:29N 59°42' E 028°22'0 0.0
2018-Feb-19 16:01N 59°42' E 028°22'0 0.0
2018-Feb-19 15:30N 59°42' E 028°22'0 0.0
2018-Feb-19 15:00N 59°42' E 028°22'0 0.0
2018-Feb-19 14:30N 59°42' E 028°22'0 0.0
2018-Feb-19 13:59N 59°42' E 028°22'0 0.0
2018-Feb-19 13:29N 59°42' E 028°22'0 0.0
2018-Feb-19 13:00N 59°42' E 028°22'0 0.0
2018-Feb-19 12:25N 59°42' E 028°22'0 0.0
2018-Feb-19 12:00N 59°42' E 028°22'0 0.0
2018-Feb-19 11:28N 59°42' E 028°22'0 0.0
2018-Feb-19 11:00N 59°42' E 028°22'0 0.0
2018-Feb-19 10:31N 59°42' E 028°22'0 0.0
2018-Feb-19 10:00N 59°42' E 028°22'0 0.0
2018-Feb-19 09:30N 59°42' E 028°22'0 0.0
2018-Feb-19 08:59N 59°42' E 028°22'0 0.0
2018-Feb-19 08:29N 59°42' E 028°22'0 0.0
2018-Feb-19 07:58N 59°42' E 028°22'0 0.0
2018-Feb-19 07:30N 59°42' E 028°22'0 0.0
2018-Feb-19 07:00N 59°42' E 028°22'0 0.0
2018-Feb-19 06:27N 59°42' E 028°22'0 0.0
2018-Feb-19 06:00N 59°42' E 028°22'0 0.0
2018-Feb-19 05:30N 59°42' E 028°22'4 7.5
2018-Feb-19 05:00N 59°45' E 028°25'3 6.9
2018-Feb-19 04:30N 59°42' E 028°25'2 3.1
2018-Feb-19 04:00N 59°41' E 028°23'0 0.0
2018-Feb-19 03:30N 59°41' E 028°23'2 4.5
2018-Feb-19 03:00N 59°43' E 028°24'1 2.9
2018-Feb-19 02:30N 59°42' E 028°22'0 0.0
2018-Feb-19 02:01N 59°42' E 028°22'0 0.0
2018-Feb-19 01:31N 59°42' E 028°22'0 0.0
2018-Feb-19 01:00N 59°42' E 028°22'0 0.0
2018-Feb-19 00:30N 59°42' E 028°22'0 0.0
2018-Feb-19 00:01N 59°42' E 028°22'0 0.0
2018-Feb-18 23:31N 59°42' E 028°22'0 0.0
2018-Feb-18 23:01N 59°42' E 028°22'0 0.0
2018-Feb-18 22:31N 59°42' E 028°22'0 0.0
2018-Feb-18 22:00N 59°42' E 028°22'0 0.0
2018-Feb-18 21:29N 59°42' E 028°22'0 0.0
2018-Feb-18 21:01N 59°42' E 028°22'0 0.0
2018-Feb-18 20:31N 59°42' E 028°22'0 0.0
2018-Feb-18 19:59N 59°42' E 028°22'0 0.0
2018-Feb-18 19:30N 59°42' E 028°22'0 0.0
2018-Feb-18 19:00N 59°42' E 028°22'0 0.0
2018-Feb-18 18:30N 59°42' E 028°22'0 0.0
2018-Feb-18 18:00N 59°42' E 028°22'0 0.0
2018-Feb-18 17:30N 59°42' E 028°22'0 0.0
2018-Feb-18 17:00N 59°42' E 028°22'0 0.0
2018-Feb-18 16:30N 59°42' E 028°22'0 0.0
2018-Feb-18 15:59N 59°42' E 028°22'0 0.0
2018-Feb-18 15:29N 59°42' E 028°22'0 0.0
2018-Feb-18 15:00N 59°42' E 028°22'0 0.0
2018-Feb-18 14:24N 59°42' E 028°22'0 0.0
2018-Feb-18 14:00N 59°42' E 028°22'0 0.0
2018-Feb-18 13:30N 59°42' E 028°22'0 0.0
2018-Feb-18 13:00N 59°42' E 028°22'0 0.0
2018-Feb-18 12:29N 59°42' E 028°22'0 0.0
2018-Feb-18 12:00N 59°42' E 028°22'0 0.0
2018-Feb-18 11:30N 59°42' E 028°22'0 0.0
2018-Feb-18 11:00N 59°42' E 028°22'0 0.0
2018-Feb-18 10:31N 59°42' E 028°22'0 0.0
2018-Feb-18 10:00N 59°42' E 028°22'0 0.0
2018-Feb-18 09:31N 59°42' E 028°22'0 0.0
2018-Feb-18 09:00N 59°42' E 028°22'0 0.0
2018-Feb-18 08:30N 59°42' E 028°22'0 0.0
2018-Feb-18 08:01N 59°42' E 028°22'0 0.0
2018-Feb-18 07:30N 59°42' E 028°22'0 0.0
2018-Feb-18 06:58N 59°42' E 028°22'0 0.0
2018-Feb-18 06:30N 59°42' E 028°22'0 0.0
2018-Feb-18 06:00N 59°42' E 028°22'0 0.0
2018-Feb-18 05:30N 59°42' E 028°22'0 0.0
2018-Feb-18 05:00N 59°42' E 028°22'0 0.0
2018-Feb-18 04:30N 59°42' E 028°22'0 0.0
2018-Feb-18 04:00N 59°42' E 028°22'1 1.9
2018-Feb-18 03:30N 59°43' E 028°22'2 4.7
2018-Feb-18 03:00N 59°44' E 028°25'2 4.7
2018-Feb-18 02:30N 59°42' E 028°26'0 0.1
2018-Feb-18 02:00N 59°42' E 028°26'2 4.0
2018-Feb-18 01:30N 59°42' E 028°22'0 0.1
2018-Feb-18 00:57N 59°42' E 028°22'0 0.0
2018-Feb-18 00:29N 59°42' E 028°22'0 0.0
2018-Feb-18 00:00N 59°42' E 028°22'0 0.0
2018-Feb-17 23:30N 59°42' E 028°22'0 0.0
2018-Feb-17 23:00N 59°42' E 028°22'0 0.0
2018-Feb-17 22:29N 59°42' E 028°22'0 0.0
2018-Feb-17 21:58N 59°42' E 028°22'0 0.0
2018-Feb-17 21:29N 59°42' E 028°22'0 0.0
2018-Feb-17 20:58N 59°42' E 028°22'0 0.0
2018-Feb-17 20:30N 59°42' E 028°22'0 0.0
2018-Feb-17 19:57N 59°42' E 028°22'0 0.0
2018-Feb-17 19:29N 59°42' E 028°22'0 0.0
2018-Feb-17 19:01N 59°42' E 028°22'0 0.0
2018-Feb-17 18:30N 59°42' E 028°22'1 3.0
2018-Feb-17 18:01N 59°41' E 028°24'1 2.1
2018-Feb-17 17:31N 59°41' E 028°23'0 0.0
2018-Feb-17 17:00N 59°41' E 028°23'0 0.0
2018-Feb-17 16:31N 59°41' E 028°23'0 0.5
2018-Feb-17 16:01N 59°40' E 028°24'2 3.0
2018-Feb-17 15:30N 59°42' E 028°24'3 7.0
2018-Feb-17 15:00N 59°45' E 028°24'0 0.6
2018-Feb-17 14:30N 59°45' E 028°24'4 7.4
2018-Feb-17 14:00N 59°42' E 028°22'0 0.0
2018-Feb-17 13:30N 59°42' E 028°22'0 0.0
2018-Feb-17 12:58N 59°42' E 028°22'0 0.0
2018-Feb-17 12:27N 59°42' E 028°22'0 0.0
2018-Feb-17 12:00N 59°42' E 028°22'0 0.0
2018-Feb-17 11:25N 59°42' E 028°22'0 0.0
2018-Feb-17 10:59N 59°42' E 028°22'0 0.0
2018-Feb-17 10:30N 59°42' E 028°22'0 0.0
2018-Feb-17 10:00N 59°42' E 028°22'0 0.0
2018-Feb-17 09:30N 59°42' E 028°22'0 0.0
2018-Feb-17 09:00N 59°42' E 028°22'0 0.0
2018-Feb-17 08:25N 59°42' E 028°22'0 0.0
2018-Feb-17 08:00N 59°42' E 028°22'0 0.0
2018-Feb-17 07:31N 59°42' E 028°22'0 0.0
2018-Feb-17 07:00N 59°42' E 028°22'0 0.0
2018-Feb-17 06:30N 59°42' E 028°22'0 0.0
2018-Feb-17 06:00N 59°42' E 028°22'0 0.0
2018-Feb-17 05:31N 59°42' E 028°22'0 0.0
2018-Feb-17 04:59N 59°42' E 028°22'0 0.0
2018-Feb-17 04:30N 59°42' E 028°22'0 0.0
2018-Feb-17 03:58N 59°42' E 028°22'0 0.0
2018-Feb-17 03:30N 59°42' E 028°22'0 0.0
2018-Feb-17 03:00N 59°42' E 028°22'0 0.0
2018-Feb-17 02:26N 59°42' E 028°22'0 0.0
2018-Feb-17 02:00N 59°42' E 028°22'0 0.0
2018-Feb-17 01:28N 59°42' E 028°22'0 0.0
2018-Feb-17 01:00N 59°42' E 028°22'0 0.0
2018-Feb-17 00:30N 59°42' E 028°22'0 0.0
2018-Feb-17 00:00N 59°42' E 028°22'0 0.0
2018-Feb-16 23:29N 59°42' E 028°22'1 2.7
2018-Feb-16 23:00N 59°42' E 028°24'1 1.8
2018-Feb-16 22:30N 59°42' E 028°26'1 1.4
2018-Feb-16 22:00N 59°41' E 028°25'3 5.3
2018-Feb-16 21:30N 59°44' E 028°23'0 0.3
2018-Feb-16 21:00N 59°44' E 028°23'3 5.3
2018-Feb-16 20:30N 59°42' E 028°22'0 0.0
2018-Feb-16 20:00N 59°42' E 028°22'0 0.0
2018-Feb-16 19:30N 59°42' E 028°22'0 0.0
2018-Feb-16 18:59N 59°42' E 028°22'0 0.0
2018-Feb-16 18:28N 59°42' E 028°22'0 0.0
2018-Feb-16 17:56N 59°42' E 028°22'0 0.0
2018-Feb-16 17:25N 59°42' E 028°22'0 0.0
2018-Feb-16 16:53N 59°42' E 028°22'0 0.0
2018-Feb-16 16:29N 59°42' E 028°22'0 0.0
2018-Feb-16 15:54N 59°42' E 028°22'0 0.0
2018-Feb-16 15:25N 59°42' E 028°22'0 0.0
2018-Feb-16 14:58N 59°42' E 028°22'0 0.0
2018-Feb-16 14:31N 59°42' E 028°22'0 0.0
2018-Feb-16 13:59N 59°42' E 028°22'0 0.0
2018-Feb-16 13:31N 59°42' E 028°22'0 0.0
2018-Feb-16 13:01N 59°42' E 028°22'0 0.0
2018-Feb-16 12:24N 59°42' E 028°22'0 0.0
2018-Feb-16 12:00N 59°42' E 028°22'0 0.0
2018-Feb-16 11:30N 59°42' E 028°22'1 1.9
2018-Feb-16 11:00N 59°42' E 028°23'2 4.1
2018-Feb-16 10:30N 59°40' E 028°24'0 0.0
2018-Feb-16 10:00N 59°40' E 028°24'0 0.0
2018-Feb-16 09:30N 59°40' E 028°24'0 0.0
2018-Feb-16 09:00N 59°40' E 028°24'0 0.0
2018-Feb-16 08:30N 59°40' E 028°24'2 4.8
2018-Feb-16 08:00N 59°43' E 028°23'1 2.5
2018-Feb-16 07:30N 59°42' E 028°22'0 0.0
2018-Feb-16 06:54N 59°42' E 028°22'0 0.0
2018-Feb-16 06:29N 59°42' E 028°22'0 0.0
2018-Feb-16 05:55N 59°42' E 028°22'0 0.0
2018-Feb-16 05:30N 59°42' E 028°22'0 0.0
2018-Feb-16 05:00N 59°42' E 028°22'0 0.0
2018-Feb-16 04:30N 59°42' E 028°22'0 0.0
2018-Feb-16 03:59N 59°42' E 028°22'0 0.0
2018-Feb-16 03:31N 59°42' E 028°22'0 0.0
2018-Feb-16 02:59N 59°42' E 028°22'0 0.0
2018-Feb-16 02:30N 59°42' E 028°22'0 0.0
2018-Feb-16 02:00N 59°42' E 028°22'0 0.0
2018-Feb-16 01:30N 59°42' E 028°22'0 0.0
2018-Feb-16 01:00N 59°42' E 028°22'0 0.0
2018-Feb-16 00:30N 59°42' E 028°22'0 0.0
2018-Feb-15 23:59N 59°42' E 028°22'0 0.0
2018-Feb-15 23:30N 59°42' E 028°22'0 0.0
2018-Feb-15 22:55N 59°42' E 028°22'0 0.0
2018-Feb-15 22:30N 59°42' E 028°22'0 0.0
2018-Feb-15 22:00N 59°42' E 028°22'0 0.0
2018-Feb-15 21:28N 59°42' E 028°22'0 0.0
2018-Feb-15 21:00N 59°42' E 028°22'0 0.0
2018-Feb-15 20:30N 59°42' E 028°22'0 0.0
2018-Feb-15 20:00N 59°42' E 028°22'0 0.0
2018-Feb-15 19:30N 59°42' E 028°22'0 0.0
2018-Feb-15 19:00N 59°42' E 028°22'0 0.0
2018-Feb-15 18:30N 59°42' E 028°22'0 0.0
2018-Feb-15 18:00N 59°42' E 028°22'0 0.0
2018-Feb-15 17:30N 59°42' E 028°22'0 0.0
2018-Feb-15 17:00N 59°42' E 028°22'0 0.0
2018-Feb-15 16:29N 59°42' E 028°22'0 0.0
2018-Feb-15 15:58N 59°42' E 028°22'0 0.0
2018-Feb-15 15:30N 59°42' E 028°22'0 0.0
2018-Feb-15 15:00N 59°42' E 028°22'0 0.0
2018-Feb-15 14:30N 59°42' E 028°22'0 0.0
2018-Feb-15 14:00N 59°42' E 028°22'0 0.0
2018-Feb-15 13:30N 59°42' E 028°22'0 0.0
2018-Feb-15 13:00N 59°42' E 028°22'0 0.0
2018-Feb-15 12:27N 59°42' E 028°22'0 0.0
2018-Feb-15 12:00N 59°42' E 028°22'0 0.0
2018-Feb-15 11:30N 59°42' E 028°22'0 0.0
2018-Feb-15 11:00N 59°42' E 028°22'0 0.0
2018-Feb-15 10:28N 59°42' E 028°22'0 0.0
2018-Feb-15 09:58N 59°42' E 028°22'0 0.0
2018-Feb-15 09:30N 59°42' E 028°22'0 0.0
2018-Feb-15 08:57N 59°42' E 028°22'0 0.0
2018-Feb-15 08:30N 59°42' E 028°22'0 0.0
2018-Feb-15 07:57N 59°42' E 028°22'0 0.0
2018-Feb-15 07:30N 59°42' E 028°22'0 0.0
2018-Feb-15 06:59N 59°42' E 028°22'0 0.0
2018-Feb-15 06:29N 59°42' E 028°22'0 0.0
2018-Feb-15 06:00N 59°42' E 028°22'0 0.0
2018-Feb-15 05:28N 59°42' E 028°22'0 0.0
2018-Feb-15 05:00N 59°42' E 028°22'0 0.0
2018-Feb-15 04:30N 59°42' E 028°22'0 0.0
2018-Feb-15 04:00N 59°42' E 028°22'0 0.0
2018-Feb-15 03:30N 59°42' E 028°22'0 0.0
2018-Feb-15 02:56N 59°42' E 028°22'0 0.0
2018-Feb-15 02:30N 59°42' E 028°22'0 0.0
2018-Feb-15 01:58N 59°42' E 028°22'0 0.0
2018-Feb-15 01:22N 59°42' E 028°22'0 0.0
2018-Feb-15 01:00N 59°42' E 028°22'0 0.0
2018-Feb-15 00:29N 59°42' E 028°22'0 0.0
2018-Feb-15 00:00N 59°42' E 028°22'0 0.0
2018-Feb-14 23:28N 59°42' E 028°22'0 0.0
2018-Feb-14 23:00N 59°42' E 028°22'0 0.0
2018-Feb-14 22:25N 59°42' E 028°22'0 0.0
2018-Feb-14 21:59N 59°42' E 028°22'0 0.0
2018-Feb-14 21:30N 59°42' E 028°22'0 0.0
2018-Feb-14 21:00N 59°42' E 028°22'0 0.0
2018-Feb-14 20:29N 59°42' E 028°22'0 0.0
2018-Feb-14 20:00N 59°42' E 028°22'0 0.0
2018-Feb-14 19:28N 59°42' E 028°22'0 0.0
2018-Feb-14 19:00N 59°42' E 028°22'0 0.0
2018-Feb-14 18:28N 59°42' E 028°22'3 5.5
2018-Feb-14 18:00N 59°44' E 028°23'2 3.1
2018-Feb-14 17:30N 59°43' E 028°25'2 4.7
2018-Feb-14 17:00N 59°41' E 028°24'0 1.0
2018-Feb-14 16:31N 59°41' E 028°23'0 0.4
2018-Feb-14 16:00N 59°40' E 028°23'2 3.2
2018-Feb-14 15:30N 59°42' E 028°22'  
Track history (hours):
 
Tides and Currents Weather Stations Pressure Air Temp Water Temp Dewpoint Dewpoint Depression Visibility Wind Speed Wind Dir Waves Ship Positions

Ryurik

Last reported at 2018-Feb-24 15:30 UTC. Time now 2018-Feb-24 15:53 UTC.
Position N 59°42' E 028°26'.

; draft 5.9 m.

Type: Tug. MMSI: 273435190.

Date/timePositionNaut miles runAvg speedWind from/ knotsBaromVisibWave heightAir tempDewpointWater temp
2018-Feb-24 15:30N 59°42' E 028°26'1 2.5
2018-Feb-24 15:00N 59°41' E 028°25'1 2.5
2018-Feb-24 14:30N 59°41' E 028°23'0 0.0
2018-Feb-24 13:59N 59°41' E 028°23'0 0.2
2018-Feb-24 13:30N 59°41' E 028°23'1 2.2
2018-Feb-24 13:00N 59°41' E 028°24'4 7.1
2018-Feb-24 12:30N 59°45' E 028°24'1 2.8
2018-Feb-24 12:00N 59°44' E 028°23'2 4.4
2018-Feb-24 11:30N 59°42' E 028°21'0 0.0
2018-Feb-24 11:00N 59°42' E 028°21'0 0.0
2018-Feb-24 10:30N 59°42' E 028°21'0 0.0
2018-Feb-24 10:00N 59°42' E 028°21'0 0.0
2018-Feb-24 09:30N 59°42' E 028°21'0 0.0
2018-Feb-24 09:00N 59°42' E 028°21'0 0.0
2018-Feb-24 08:30N 59°42' E 028°21'0 0.0
2018-Feb-24 08:00N 59°42' E 028°21'0 0.0
2018-Feb-24 07:30N 59°42' E 028°21'0 0.0
2018-Feb-24 07:00N 59°42' E 028°21'0 0.0
2018-Feb-24 06:30N 59°42' E 028°21'0 0.0
2018-Feb-24 06:00N 59°42' E 028°21'0 0.0
2018-Feb-24 05:30N 59°42' E 028°21'0 0.0
2018-Feb-24 05:00N 59°42' E 028°21'0 0.0
2018-Feb-24 04:30N 59°42' E 028°21'0 0.0
2018-Feb-24 04:00N 59°42' E 028°21'0 0.0
2018-Feb-24 03:30N 59°42' E 028°21'0 0.0
2018-Feb-24 03:01N 59°42' E 028°21'0 0.0
2018-Feb-24 02:30N 59°42' E 028°21'0 0.0
2018-Feb-24 02:00N 59°42' E 028°21'0 0.0
2018-Feb-24 01:30N 59°42' E 028°21'0 0.0
2018-Feb-24 01:00N 59°42' E 028°21'0 0.0
2018-Feb-24 00:30N 59°42' E 028°21'0 0.0
2018-Feb-24 00:00N 59°42' E 028°21'0 0.0
2018-Feb-23 23:30N 59°42' E 028°21'0 0.0
2018-Feb-23 23:00N 59°42' E 028°21'0 0.0
2018-Feb-23 22:30N 59°42' E 028°21'0 0.0
2018-Feb-23 22:00N 59°42' E 028°21'0 0.0
2018-Feb-23 21:30N 59°42' E 028°21'0 0.0
2018-Feb-23 21:00N 59°42' E 028°21'0 0.0
2018-Feb-23 20:30N 59°42' E 028°21'0 0.0
2018-Feb-23 20:00N 59°42' E 028°21'0 0.0
2018-Feb-23 19:30N 59°42' E 028°21'0 0.0
2018-Feb-23 19:00N 59°42' E 028°21'0 0.0
2018-Feb-23 18:30N 59°42' E 028°21'0 0.0
2018-Feb-23 18:00N 59°42' E 028°21'0 0.0
2018-Feb-23 17:30N 59°42' E 028°21'0 0.0
2018-Feb-23 17:00N 59°42' E 028°21'4 7.4
2018-Feb-23 16:30N 59°45' E 028°24'2 4.1
2018-Feb-23 16:00N 59°43' E 028°25'1 1.6
2018-Feb-23 15:30N 59°42' E 028°26'0 0.0
2018-Feb-23 15:00N 59°42' E 028°26'1 2.1
2018-Feb-23 14:30N 59°43' E 028°24'2 3.2
2018-Feb-23 14:00N 59°42' E 028°21'0 0.0
2018-Feb-23 13:30N 59°42' E 028°21'0 0.0
2018-Feb-23 13:00N 59°42' E 028°21'0 0.0
2018-Feb-23 12:30N 59°42' E 028°21'0 0.0
2018-Feb-23 12:00N 59°42' E 028°21'0 0.0
2018-Feb-23 11:30N 59°42' E 028°21'0 0.0
2018-Feb-23 11:00N 59°42' E 028°21'0 0.0
2018-Feb-23 10:30N 59°42' E 028°21'0 0.0
2018-Feb-23 10:00N 59°42' E 028°21'0 0.0
2018-Feb-23 09:30N 59°42' E 028°21'0 0.0
2018-Feb-23 09:00N 59°42' E 028°21'0 0.0
2018-Feb-23 08:30N 59°42' E 028°21'0 0.0
2018-Feb-23 08:00N 59°42' E 028°21'0 0.0
2018-Feb-23 07:30N 59°42' E 028°21'0 0.0
2018-Feb-23 07:00N 59°42' E 028°21'0 0.0
2018-Feb-23 06:30N 59°42' E 028°21'0 0.0
2018-Feb-23 06:00N 59°42' E 028°21'0 0.0
2018-Feb-23 05:30N 59°42' E 028°21'0 0.0
2018-Feb-23 05:00N 59°42' E 028°21'0 0.0
2018-Feb-23 04:30N 59°42' E 028°21'0 0.0
2018-Feb-23 04:00N 59°42' E 028°21'0 0.0
2018-Feb-23 03:30N 59°42' E 028°21'0 0.0
2018-Feb-23 03:00N 59°42' E 028°21'0 0.0
2018-Feb-23 02:30N 59°42' E 028°21'0 0.0
2018-Feb-23 02:00N 59°42' E 028°21'1 2.9
2018-Feb-23 01:30N 59°42' E 028°24'1 2.0
2018-Feb-23 01:00N 59°43' E 028°26'0 0.2
2018-Feb-23 00:30N 59°42' E 028°26'0 0.9
2018-Feb-23 00:00N 59°42' E 028°25'1 1.6
2018-Feb-22 23:30N 59°42' E 028°24'3 5.8
2018-Feb-22 23:00N 59°45' E 028°24'2 4.6
2018-Feb-22 22:30N 59°43' E 028°25'3 5.3
2018-Feb-22 22:00N 59°41' E 028°23'0 0.2
2018-Feb-22 21:30N 59°41' E 028°23'0 0.0
2018-Feb-22 21:00N 59°41' E 028°23'1 1.6
2018-Feb-22 20:30N 59°41' E 028°24'0 0.0
2018-Feb-22 20:00N 59°41' E 028°24'0 0.0
2018-Feb-22 19:30N 59°41' E 028°24'0 0.0
2018-Feb-22 19:00N 59°41' E 028°24'0 0.0
2018-Feb-22 18:30N 59°41' E 028°24'0 0.0
2018-Feb-22 18:00N 59°41' E 028°24'0 0.0
2018-Feb-22 17:30N 59°41' E 028°24'0 0.0
2018-Feb-22 17:00N 59°41' E 028°24'0 0.0
2018-Feb-22 16:30N 59°41' E 028°24'0 0.0
2018-Feb-22 16:00N 59°41' E 028°24'0 0.0
2018-Feb-22 15:30N 59°41' E 028°24'0 0.0
2018-Feb-22 15:00N 59°41' E 028°24'0 0.9
2018-Feb-22 14:30N 59°40' E 028°24'0 0.0
2018-Feb-22 14:00N 59°40' E 028°24'0 0.1
2018-Feb-22 13:29N 59°40' E 028°24'0 0.0
2018-Feb-22 13:00N 59°40' E 028°24'0 0.0
2018-Feb-22 12:29N 59°40' E 028°24'0 0.0
2018-Feb-22 12:00N 59°40' E 028°24'0 0.0
2018-Feb-22 11:28N 59°40' E 028°24'0 0.1
2018-Feb-22 11:00N 59°40' E 028°24'0 0.0
2018-Feb-22 10:30N 59°40' E 028°24'2 3.6
2018-Feb-22 10:00N 59°42' E 028°25'0 0.5
2018-Feb-22 09:30N 59°42' E 028°26'0 0.9
2018-Feb-22 09:00N 59°42' E 028°25'1 1.8
2018-Feb-22 08:30N 59°42' E 028°24'3 5.7
2018-Feb-22 08:00N 59°45' E 028°24'3 7.0
2018-Feb-22 07:30N 59°42' E 028°22'0 0.7
2018-Feb-22 07:00N 59°42' E 028°22'0 0.0
2018-Feb-22 06:30N 59°42' E 028°22'0 0.0
2018-Feb-22 06:00N 59°42' E 028°22'0 0.0
2018-Feb-22 05:30N 59°42' E 028°22'0 0.0
2018-Feb-22 05:00N 59°42' E 028°22'0 0.0
2018-Feb-22 04:30N 59°42' E 028°22'0 0.0
2018-Feb-22 04:00N 59°42' E 028°22'0 0.0
2018-Feb-22 03:30N 59°42' E 028°22'0 0.0
2018-Feb-22 03:00N 59°42' E 028°22'0 0.0
2018-Feb-22 02:30N 59°42' E 028°22'0 0.0
2018-Feb-22 02:00N 59°42' E 028°22'0 0.0
2018-Feb-22 01:28N 59°42' E 028°22'0 0.0
2018-Feb-22 01:00N 59°42' E 028°22'0 0.0
2018-Feb-22 00:29N 59°42' E 028°22'0 0.0
2018-Feb-22 00:00N 59°42' E 028°22'0 0.0
2018-Feb-21 23:30N 59°42' E 028°22'0 0.0
2018-Feb-21 23:00N 59°42' E 028°22'0 0.0
2018-Feb-21 22:30N 59°42' E 028°22'0 0.0
2018-Feb-21 22:00N 59°42' E 028°22'0 0.0
2018-Feb-21 21:30N 59°42' E 028°22'0 0.0
2018-Feb-21 21:00N 59°42' E 028°22'0 0.0
2018-Feb-21 20:30N 59°42' E 028°22'0 0.0
2018-Feb-21 20:00N 59°42' E 028°22'0 0.0
2018-Feb-21 19:30N 59°42' E 028°22'0 0.0
2018-Feb-21 19:00N 59°42' E 028°22'0 0.0
2018-Feb-21 18:27N 59°42' E 028°22'0 0.0
2018-Feb-21 17:57N 59°42' E 028°22'0 0.0
2018-Feb-21 17:30N 59°42' E 028°22'0 0.0
2018-Feb-21 16:55N 59°42' E 028°22'0 0.0
2018-Feb-21 16:30N 59°42' E 028°22'0 0.0
2018-Feb-21 16:00N 59°42' E 028°22'0 0.0
2018-Feb-21 15:30N 59°42' E 028°22'0 0.0
2018-Feb-21 15:00N 59°42' E 028°22'0 0.0
2018-Feb-21 14:30N 59°42' E 028°22'0 0.0
2018-Feb-21 14:00N 59°42' E 028°22'0 0.0
2018-Feb-21 13:30N 59°42' E 028°22'0 0.0
2018-Feb-21 13:00N 59°42' E 028°22'0 0.0
2018-Feb-21 12:29N 59°42' E 028°22'0 0.0
2018-Feb-21 12:00N 59°42' E 028°22'0 0.0
2018-Feb-21 11:30N 59°42' E 028°22'0 0.0
2018-Feb-21 11:00N 59°42' E 028°22'0 0.0
2018-Feb-21 10:30N 59°42' E 028°22'0 0.0
2018-Feb-21 10:00N 59°42' E 028°22'0 0.0
2018-Feb-21 09:30N 59°42' E 028°22'0 0.0
2018-Feb-21 08:59N 59°42' E 028°22'0 0.0
2018-Feb-21 08:30N 59°42' E 028°22'0 0.0
2018-Feb-21 08:00N 59°42' E 028°22'0 0.0
2018-Feb-21 07:30N 59°42' E 028°22'0 0.0
2018-Feb-21 06:59N 59°42' E 028°22'0 0.0
2018-Feb-21 06:30N 59°42' E 028°22'0 0.0
2018-Feb-21 06:00N 59°42' E 028°22'0 0.0
2018-Feb-21 05:30N 59°42' E 028°22'0 0.0
2018-Feb-21 05:00N 59°42' E 028°22'0 0.0
2018-Feb-21 04:30N 59°42' E 028°22'0 0.0
2018-Feb-21 04:00N 59°42' E 028°22'0 0.0
2018-Feb-21 03:30N 59°42' E 028°22'0 0.0
2018-Feb-21 03:00N 59°42' E 028°22'0 0.0
2018-Feb-21 02:30N 59°42' E 028°22'0 0.0
2018-Feb-21 02:00N 59°42' E 028°22'0 0.0
2018-Feb-21 01:30N 59°42' E 028°22'0 0.0
2018-Feb-21 00:59N 59°42' E 028°22'0 0.0
2018-Feb-21 00:30N 59°42' E 028°22'0 0.0
2018-Feb-21 00:00N 59°42' E 028°22'0 0.0
2018-Feb-20 23:30N 59°42' E 028°22'0 0.0
2018-Feb-20 23:00N 59°42' E 028°22'0 0.0
2018-Feb-20 22:30N 59°42' E 028°22'0 0.0
2018-Feb-20 22:00N 59°42' E 028°22'0 0.0
2018-Feb-20 21:29N 59°42' E 028°22'0 0.0
2018-Feb-20 20:59N 59°42' E 028°22'0 0.0
2018-Feb-20 20:30N 59°42' E 028°22'0 0.0
2018-Feb-20 20:00N 59°42' E 028°22'0 0.0
2018-Feb-20 19:30N 59°42' E 028°22'0 0.0
2018-Feb-20 19:00N 59°42' E 028°22'0 0.0
2018-Feb-20 18:30N 59°42' E 028°22'0 0.0
2018-Feb-20 18:00N 59°42' E 028°22'0 0.0
2018-Feb-20 17:30N 59°42' E 028°22'0 0.0
2018-Feb-20 17:00N 59°42' E 028°22'0 0.0
2018-Feb-20 16:30N 59°42' E 028°22'0 0.0
2018-Feb-20 16:00N 59°42' E 028°22'0 0.0
2018-Feb-20 15:30N 59°42' E 028°22'0 0.0
2018-Feb-20 15:00N 59°42' E 028°22'0 0.0
2018-Feb-20 14:30N 59°42' E 028°22'0 0.0
2018-Feb-20 14:00N 59°42' E 028°22'0 0.0
2018-Feb-20 13:30N 59°42' E 028°22'0 0.0
2018-Feb-20 13:00N 59°42' E 028°22'0 0.0
2018-Feb-20 12:30N 59°42' E 028°22'0 0.0
2018-Feb-20 11:58N 59°42' E 028°22'0 0.0
2018-Feb-20 11:30N 59°42' E 028°22'0 0.0
2018-Feb-20 11:00N 59°42' E 028°22'0 0.0
2018-Feb-20 10:30N 59°42' E 028°22'0 0.0
2018-Feb-20 10:00N 59°42' E 028°22'0 0.0
2018-Feb-20 09:30N 59°42' E 028°22'0 0.0
2018-Feb-20 09:00N 59°42' E 028°22'0 0.0
2018-Feb-20 08:30N 59°42' E 028°22'0 0.0
2018-Feb-20 08:00N 59°42' E 028°22'0 0.0
2018-Feb-20 07:29N 59°42' E 028°22'0 0.0
2018-Feb-20 07:00N 59°42' E 028°22'0 0.0
2018-Feb-20 06:29N 59°42' E 028°22'0 0.0
2018-Feb-20 06:00N 59°42' E 028°22'0 0.0
2018-Feb-20 05:31N 59°42' E 028°22'0 0.0
2018-Feb-20 05:01N 59°42' E 028°22'0 0.0
2018-Feb-20 04:30N 59°42' E 028°22'1 2.8
2018-Feb-20 04:01N 59°43' E 028°24'2 3.9
2018-Feb-20 03:30N 59°41' E 028°23'0 0.0
2018-Feb-20 02:55N 59°41' E 028°23'0 0.1
2018-Feb-20 02:30N 59°41' E 028°23'0 0.8
2018-Feb-20 02:00N 59°41' E 028°24'2 4.1
2018-Feb-20 01:31N 59°43' E 028°24'3 5.7
2018-Feb-20 01:00N 59°45' E 028°25'0 0.5
2018-Feb-20 00:31N 59°46' E 028°24'0 0.0
2018-Feb-20 00:00N 59°46' E 028°24'3 6.1
2018-Feb-19 23:30N 59°43' E 028°22'1 2.0
2018-Feb-19 23:00N 59°42' E 028°22'0 0.0
2018-Feb-19 22:30N 59°42' E 028°22'0 0.0
2018-Feb-19 22:00N 59°42' E 028°22'0 0.0
2018-Feb-19 21:29N 59°42' E 028°22'0 0.0
2018-Feb-19 20:55N 59°42' E 028°22'0 0.0
2018-Feb-19 20:30N 59°42' E 028°22'0 0.0
2018-Feb-19 19:53N 59°42' E 028°22'0 0.0
2018-Feb-19 19:28N 59°42' E 028°22'0 0.0
2018-Feb-19 19:00N 59°42' E 028°22'0 0.0
2018-Feb-19 18:30N 59°42' E 028°22'0 0.0
2018-Feb-19 18:00N 59°42' E 028°22'0 0.0
2018-Feb-19 17:29N 59°42' E 028°22'0 0.0
2018-Feb-19 17:00N 59°42' E 028°22'0 0.0
2018-Feb-19 16:29N 59°42' E 028°22'0 0.0
2018-Feb-19 16:01N 59°42' E 028°22'0 0.0
2018-Feb-19 15:30N 59°42' E 028°22'0 0.0
2018-Feb-19 15:00N 59°42' E 028°22'0 0.0
2018-Feb-19 14:30N 59°42' E 028°22'0 0.0
2018-Feb-19 13:59N 59°42' E 028°22'0 0.0
2018-Feb-19 13:29N 59°42' E 028°22'0 0.0
2018-Feb-19 13:00N 59°42' E 028°22'0 0.0
2018-Feb-19 12:25N 59°42' E 028°22'0 0.0
2018-Feb-19 12:00N 59°42' E 028°22'0 0.0
2018-Feb-19 11:28N 59°42' E 028°22'0 0.0
2018-Feb-19 11:00N 59°42' E 028°22'0 0.0
2018-Feb-19 10:31N 59°42' E 028°22'0 0.0
2018-Feb-19 10:00N 59°42' E 028°22'0 0.0
2018-Feb-19 09:30N 59°42' E 028°22'0 0.0
2018-Feb-19 08:59N 59°42' E 028°22'0 0.0
2018-Feb-19 08:29N 59°42' E 028°22'0 0.0
2018-Feb-19 07:58N 59°42' E 028°22'0 0.0
2018-Feb-19 07:30N 59°42' E 028°22'0 0.0
2018-Feb-19 07:00N 59°42' E 028°22'0 0.0
2018-Feb-19 06:27N 59°42' E 028°22'0 0.0
2018-Feb-19 06:00N 59°42' E 028°22'0 0.0
2018-Feb-19 05:30N 59°42' E 028°22'4 7.5
2018-Feb-19 05:00N 59°45' E 028°25'3 6.9
2018-Feb-19 04:30N 59°42' E 028°25'2 3.1
2018-Feb-19 04:00N 59°41' E 028°23'0 0.0
2018-Feb-19 03:30N 59°41' E 028°23'2 4.5
2018-Feb-19 03:00N 59°43' E 028°24'1 2.9
2018-Feb-19 02:30N 59°42' E 028°22'0 0.0
2018-Feb-19 02:01N 59°42' E 028°22'0 0.0
2018-Feb-19 01:31N 59°42' E 028°22'0 0.0
2018-Feb-19 01:00N 59°42' E 028°22'0 0.0
2018-Feb-19 00:30N 59°42' E 028°22'0 0.0
2018-Feb-19 00:01N 59°42' E 028°22'0 0.0
2018-Feb-18 23:31N 59°42' E 028°22'0 0.0
2018-Feb-18 23:01N 59°42' E 028°22'0 0.0
2018-Feb-18 22:31N 59°42' E 028°22'0 0.0
2018-Feb-18 22:00N 59°42' E 028°22'0 0.0
2018-Feb-18 21:29N 59°42' E 028°22'0 0.0
2018-Feb-18 21:01N 59°42' E 028°22'0 0.0
2018-Feb-18 20:31N 59°42' E 028°22'0 0.0
2018-Feb-18 19:59N 59°42' E 028°22'0 0.0
2018-Feb-18 19:30N 59°42' E 028°22'0 0.0
2018-Feb-18 19:00N 59°42' E 028°22'0 0.0
2018-Feb-18 18:30N 59°42' E 028°22'0 0.0
2018-Feb-18 18:00N 59°42' E 028°22'0 0.0
2018-Feb-18 17:30N 59°42' E 028°22'0 0.0
2018-Feb-18 17:00N 59°42' E 028°22'0 0.0
2018-Feb-18 16:30N 59°42' E 028°22'0 0.0
2018-Feb-18 15:59N 59°42' E 028°22'0 0.0
2018-Feb-18 15:29N 59°42' E 028°22'0 0.0
2018-Feb-18 15:00N 59°42' E 028°22'0 0.0
2018-Feb-18 14:24N 59°42' E 028°22'0 0.0
2018-Feb-18 14:00N 59°42' E 028°22'0 0.0
2018-Feb-18 13:30N 59°42' E 028°22'0 0.0
2018-Feb-18 13:00N 59°42' E 028°22'0 0.0
2018-Feb-18 12:29N 59°42' E 028°22'0 0.0
2018-Feb-18 12:00N 59°42' E 028°22'0 0.0
2018-Feb-18 11:30N 59°42' E 028°22'0 0.0
2018-Feb-18 11:00N 59°42' E 028°22'0 0.0
2018-Feb-18 10:31N 59°42' E 028°22'0 0.0
2018-Feb-18 10:00N 59°42' E 028°22'0 0.0
2018-Feb-18 09:31N 59°42' E 028°22'0 0.0
2018-Feb-18 09:00N 59°42' E 028°22'0 0.0
2018-Feb-18 08:30N 59°42' E 028°22'0 0.0
2018-Feb-18 08:01N 59°42' E 028°22'0 0.0
2018-Feb-18 07:30N 59°42' E 028°22'0 0.0
2018-Feb-18 06:58N 59°42' E 028°22'0 0.0
2018-Feb-18 06:30N 59°42' E 028°22'0 0.0
2018-Feb-18 06:00N 59°42' E 028°22'0 0.0
2018-Feb-18 05:30N 59°42' E 028°22'0 0.0
2018-Feb-18 05:00N 59°42' E 028°22'0 0.0
2018-Feb-18 04:30N 59°42' E 028°22'0 0.0
2018-Feb-18 04:00N 59°42' E 028°22'1 1.9
2018-Feb-18 03:30N 59°43' E 028°22'2 4.7
2018-Feb-18 03:00N 59°44' E 028°25'2 4.7
2018-Feb-18 02:30N 59°42' E 028°26'0 0.1
2018-Feb-18 02:00N 59°42' E 028°26'2 4.0
2018-Feb-18 01:30N 59°42' E 028°22'0 0.1
2018-Feb-18 00:57N 59°42' E 028°22'0 0.0
2018-Feb-18 00:29N 59°42' E 028°22'0 0.0
2018-Feb-18 00:00N 59°42' E 028°22'0 0.0
2018-Feb-17 23:30N 59°42' E 028°22'0 0.0
2018-Feb-17 23:00N 59°42' E 028°22'0 0.0
2018-Feb-17 22:29N 59°42' E 028°22'0 0.0
2018-Feb-17 21:58N 59°42' E 028°22'0 0.0
2018-Feb-17 21:29N 59°42' E 028°22'0 0.0
2018-Feb-17 20:58N 59°42' E 028°22'0 0.0
2018-Feb-17 20:30N 59°42' E 028°22'0 0.0
2018-Feb-17 19:57N 59°42' E 028°22'0 0.0
2018-Feb-17 19:29N 59°42' E 028°22'0 0.0
2018-Feb-17 19:01N 59°42' E 028°22'0 0.0
2018-Feb-17 18:30N 59°42' E 028°22'1 3.0
2018-Feb-17 18:01N 59°41' E 028°24'1 2.1
2018-Feb-17 17:31N 59°41' E 028°23'0 0.0
2018-Feb-17 17:00N 59°41' E 028°23'0 0.0
2018-Feb-17 16:31N 59°41' E 028°23'0 0.5
2018-Feb-17 16:01N 59°40' E 028°24'2 3.0
2018-Feb-17 15:30N 59°42' E 028°24'3 7.0
2018-Feb-17 15:00N 59°45' E 028°24'0 0.6
2018-Feb-17 14:30N 59°45' E 028°24'4 7.4
2018-Feb-17 14:00N 59°42' E 028°22'0 0.0
2018-Feb-17 13:30N 59°42' E 028°22'0 0.0
2018-Feb-17 12:58N 59°42' E 028°22'0 0.0
2018-Feb-17 12:27N 59°42' E 028°22'0 0.0
2018-Feb-17 12:00N 59°42' E 028°22'0 0.0
2018-Feb-17 11:25N 59°42' E 028°22'0 0.0
2018-Feb-17 10:59N 59°42' E 028°22'0 0.0
2018-Feb-17 10:30N 59°42' E 028°22'0 0.0
2018-Feb-17 10:00N 59°42' E 028°22'0 0.0
2018-Feb-17 09:30N 59°42' E 028°22'0 0.0
2018-Feb-17 09:00N 59°42' E 028°22'0 0.0
2018-Feb-17 08:25N 59°42' E 028°22'0 0.0
2018-Feb-17 08:00N 59°42' E 028°22'0 0.0
2018-Feb-17 07:31N 59°42' E 028°22'0 0.0
2018-Feb-17 07:00N 59°42' E 028°22'0 0.0
2018-Feb-17 06:30N 59°42' E 028°22'0 0.0
2018-Feb-17 06:00N 59°42' E 028°22'0 0.0
2018-Feb-17 05:31N 59°42' E 028°22'0 0.0
2018-Feb-17 04:59N 59°42' E 028°22'0 0.0
2018-Feb-17 04:30N 59°42' E 028°22'0 0.0
2018-Feb-17 03:58N 59°42' E 028°22'0 0.0
2018-Feb-17 03:30N 59°42' E 028°22'0 0.0
2018-Feb-17 03:00N 59°42' E 028°22'0 0.0
2018-Feb-17 02:26N 59°42' E 028°22'0 0.0
2018-Feb-17 02:00N 59°42' E 028°22'0 0.0
2018-Feb-17 01:28N 59°42' E 028°22'0 0.0
2018-Feb-17 01:00N 59°42' E 028°22'0 0.0
2018-Feb-17 00:30N 59°42' E 028°22'0 0.0
2018-Feb-17 00:00N 59°42' E 028°22'0 0.0
2018-Feb-16 23:29N 59°42' E 028°22'1 2.7
2018-Feb-16 23:00N 59°42' E 028°24'1 1.8
2018-Feb-16 22:30N 59°42' E 028°26'1 1.4
2018-Feb-16 22:00N 59°41' E 028°25'3 5.3
2018-Feb-16 21:30N 59°44' E 028°23'0 0.3
2018-Feb-16 21:00N 59°44' E 028°23'3 5.3
2018-Feb-16 20:30N 59°42' E 028°22'0 0.0
2018-Feb-16 20:00N 59°42' E 028°22'0 0.0
2018-Feb-16 19:30N 59°42' E 028°22'0 0.0
2018-Feb-16 18:59N 59°42' E 028°22'0 0.0
2018-Feb-16 18:28N 59°42' E 028°22'0 0.0
2018-Feb-16 17:56N 59°42' E 028°22'0 0.0
2018-Feb-16 17:25N 59°42' E 028°22'0 0.0
2018-Feb-16 16:53N 59°42' E 028°22'0 0.0
2018-Feb-16 16:29N 59°42' E 028°22'0 0.0
2018-Feb-16 15:54N 59°42' E 028°22'0 0.0
2018-Feb-16 15:25N 59°42' E 028°22'0 0.0
2018-Feb-16 14:58N 59°42' E 028°22'0 0.0
2018-Feb-16 14:31N 59°42' E 028°22'0 0.0
2018-Feb-16 13:59N 59°42' E 028°22'0 0.0
2018-Feb-16 13:31N 59°42' E 028°22'0 0.0
2018-Feb-16 13:01N 59°42' E 028°22'0 0.0
2018-Feb-16 12:24N 59°42' E 028°22'0 0.0
2018-Feb-16 12:00N 59°42' E 028°22'0 0.0
2018-Feb-16 11:30N 59°42' E 028°22'1 1.9
2018-Feb-16 11:00N 59°42' E 028°23'2 4.1
2018-Feb-16 10:30N 59°40' E 028°24'0 0.0
2018-Feb-16 10:00N 59°40' E 028°24'0 0.0
2018-Feb-16 09:30N 59°40' E 028°24'0 0.0
2018-Feb-16 09:00N 59°40' E 028°24'0 0.0
2018-Feb-16 08:30N 59°40' E 028°24'2 4.8
2018-Feb-16 08:00N 59°43' E 028°23'1 2.5
2018-Feb-16 07:30N 59°42' E 028°22'0 0.0
2018-Feb-16 06:54N 59°42' E 028°22'0 0.0
2018-Feb-16 06:29N 59°42' E 028°22'0 0.0
2018-Feb-16 05:55N 59°42' E 028°22'0 0.0
2018-Feb-16 05:30N 59°42' E 028°22'0 0.0
2018-Feb-16 05:00N 59°42' E 028°22'0 0.0
2018-Feb-16 04:30N 59°42' E 028°22'0 0.0
2018-Feb-16 03:59N 59°42' E 028°22'0 0.0
2018-Feb-16 03:31N 59°42' E 028°22'0 0.0
2018-Feb-16 02:59N 59°42' E 028°22'0 0.0
2018-Feb-16 02:30N 59°42' E 028°22'0 0.0
2018-Feb-16 02:00N 59°42' E 028°22'0 0.0
2018-Feb-16 01:30N 59°42' E 028°22'0 0.0
2018-Feb-16 01:00N 59°42' E 028°22'0 0.0
2018-Feb-16 00:30N 59°42' E 028°22'0 0.0
2018-Feb-15 23:59N 59°42' E 028°22'0 0.0
2018-Feb-15 23:30N 59°42' E 028°22'0 0.0
2018-Feb-15 22:55N 59°42' E 028°22'0 0.0
2018-Feb-15 22:30N 59°42' E 028°22'0 0.0
2018-Feb-15 22:00N 59°42' E 028°22'0 0.0
2018-Feb-15 21:28N 59°42' E 028°22'0 0.0
2018-Feb-15 21:00N 59°42' E 028°22'0 0.0
2018-Feb-15 20:30N 59°42' E 028°22'0 0.0
2018-Feb-15 20:00N 59°42' E 028°22'0 0.0
2018-Feb-15 19:30N 59°42' E 028°22'0 0.0
2018-Feb-15 19:00N 59°42' E 028°22'0 0.0
2018-Feb-15 18:30N 59°42' E 028°22'0 0.0
2018-Feb-15 18:00N 59°42' E 028°22'0 0.0
2018-Feb-15 17:30N 59°42' E 028°22'0 0.0
2018-Feb-15 17:00N 59°42' E 028°22'0 0.0
2018-Feb-15 16:29N 59°42' E 028°22'0 0.0
2018-Feb-15 15:58N 59°42' E 028°22'0 0.0
2018-Feb-15 15:30N 59°42' E 028°22'0 0.0
2018-Feb-15 15:00N 59°42' E 028°22'0 0.0
2018-Feb-15 14:30N 59°42' E 028°22'0 0.0
2018-Feb-15 14:00N 59°42' E 028°22'0 0.0
2018-Feb-15 13:30N 59°42' E 028°22'0 0.0
2018-Feb-15 13:00N 59°42' E 028°22'0 0.0
2018-Feb-15 12:27N 59°42' E 028°22'0 0.0
2018-Feb-15 12:00N 59°42' E 028°22'0 0.0
2018-Feb-15 11:30N 59°42' E 028°22'0 0.0
2018-Feb-15 11:00N 59°42' E 028°22'0 0.0
2018-Feb-15 10:28N 59°42' E 028°22'0 0.0
2018-Feb-15 09:58N 59°42' E 028°22'0 0.0
2018-Feb-15 09:30N 59°42' E 028°22'0 0.0
2018-Feb-15 08:57N 59°42' E 028°22'0 0.0
2018-Feb-15 08:30N 59°42' E 028°22'0 0.0
2018-Feb-15 07:57N 59°42' E 028°22'0 0.0
2018-Feb-15 07:30N 59°42' E 028°22'0 0.0
2018-Feb-15 06:59N 59°42' E 028°22'0 0.0
2018-Feb-15 06:29N 59°42' E 028°22'0 0.0
2018-Feb-15 06:00N 59°42' E 028°22'0 0.0
2018-Feb-15 05:28N 59°42' E 028°22'0 0.0
2018-Feb-15 05:00N 59°42' E 028°22'0 0.0
2018-Feb-15 04:30N 59°42' E 028°22'0 0.0
2018-Feb-15 04:00N 59°42' E 028°22'0 0.0
2018-Feb-15 03:30N 59°42' E 028°22'0 0.0
2018-Feb-15 02:56N 59°42' E 028°22'0 0.0
2018-Feb-15 02:30N 59°42' E 028°22'0 0.0
2018-Feb-15 01:58N 59°42' E 028°22'0 0.0
2018-Feb-15 01:22N 59°42' E 028°22'0 0.0
2018-Feb-15 01:00N 59°42' E 028°22'0 0.0
2018-Feb-15 00:29N 59°42' E 028°22'0 0.0
2018-Feb-15 00:00N 59°42' E 028°22'0 0.0
2018-Feb-14 23:28N 59°42' E 028°22'0 0.0
2018-Feb-14 23:00N 59°42' E 028°22'0 0.0
2018-Feb-14 22:25N 59°42' E 028°22'0 0.0
2018-Feb-14 21:59N 59°42' E 028°22'0 0.0
2018-Feb-14 21:30N 59°42' E 028°22'0 0.0
2018-Feb-14 21:00N 59°42' E 028°22'0 0.0
2018-Feb-14 20:29N 59°42' E 028°22'0 0.0
2018-Feb-14 20:00N 59°42' E 028°22'0 0.0
2018-Feb-14 19:28N 59°42' E 028°22'0 0.0
2018-Feb-14 19:00N 59°42' E 028°22'0 0.0
2018-Feb-14 18:28N 59°42' E 028°22'3 5.5
2018-Feb-14 18:00N 59°44' E 028°23'2 3.1
2018-Feb-14 17:30N 59°43' E 028°25'2 4.7
2018-Feb-14 17:00N 59°41' E 028°24'0 1.0
2018-Feb-14 16:31N 59°41' E 028°23'0 0.4
2018-Feb-14 16:00N 59°40' E 028°23'2 3.2
2018-Feb-14 15:30N 59°42' E 028°22'  

Dump ship's entire track history